Time;durP1;ratioP1;P1;durP2;ratioP2;P2;SDS_P1;SDS_P2;PMS_P1;PMS_P2;Temp;Humidity;BMP_temperature;BMP_pressure;BME280_temperature;BME280_humidity;BME280_pressure;Samples;Min_cycle;Max_cycle;Signal;HPM_P1;HPM_P2
2022/10/06 00:02:00;;;;;;;9.07;5.33;;;;;;;-141.28;100.00;49623.69;5092241;28;20543;-75
2022/10/06 00:04:27;;;;;;;9.37;5.47;;;;;;;-141.28;100.00;49596.22;5091643;28;21101;-74
2022/10/06 00:06:54;;;;;;;10.97;5.07;;;;;;;-141.28;100.00;49592.28;5091974;28;20473;-74
2022/10/06 00:09:21;;;;;;;9.80;5.63;;;;;;;-141.28;100.00;49582.47;5091791;28;20245;-74
2022/10/06 00:11:48;;;;;;;7.23;5.00;;;;;;;-141.28;100.00;49545.19;5091731;28;20445;-75
2022/10/06 00:14:16;;;;;;;8.17;4.63;;;;;;;-141.28;100.00;49545.19;5091395;28;20453;-73
2022/10/06 00:16:43;;;;;;;7.60;4.57;;;;;;;-141.28;100.00;49505.94;5091271;28;20670;-72
2022/10/06 00:19:13;;;;;;;7.23;4.37;;;;;;;-141.28;100.00;49521.63;5070020;28;20445;-74
2022/10/06 00:21:40;;;;;;;8.57;5.37;;;;;;;-141.28;100.00;49500.06;5086965;28;20481;-73
2022/10/06 00:24:07;;;;;;;7.30;4.10;;;;;;;-141.28;100.00;49462.78;5091593;28;20461;-73
2022/10/06 00:26:34;;;;;;;7.33;4.00;;;;;;;-141.28;100.00;49441.19;5091259;28;20437;-74
2022/10/06 00:29:01;;;;;;;3.93;3.00;;;;;;;-141.28;100.00;49411.75;5091440;28;20437;-74
2022/10/06 00:31:28;;;;;;;6.47;3.57;;;;;;;-141.28;100.00;49419.59;5091121;28;20807;-74
2022/10/06 00:33:55;;;;;;;6.73;3.37;;;;;;;-141.28;100.00;49409.78;5089120;28;20211;-74
2022/10/06 00:36:24;;;;;;;3.70;3.07;;;;;;;-141.28;100.00;49390.16;5091062;28;20495;-73
2022/10/06 00:38:51;;;;;;;5.87;3.63;;;;;;;-141.28;100.00;49392.13;5090806;28;20438;-75
2022/10/06 00:41:19;;;;;;;5.03;3.37;;;;;;;-141.28;100.00;49384.28;5090993;28;20507;-76
2022/10/06 00:43:49;;;;;;;6.87;3.50;;;;;;;-141.28;100.00;49380.34;5090264;28;20433;-74
2022/10/06 00:46:24;;;;;;;4.40;3.53;;;;;;;-141.28;100.00;49399.97;5094593;28;20628;-73
2022/10/06 00:48:57;;;;;;;3.83;3.03;;;;;;;-141.28;100.00;49374.47;5091080;28;20438;-73
2022/10/06 00:51:28;;;;;;;6.17;3.20;;;;;;;-141.28;100.00;49345.03;5090829;28;20445;-74
2022/10/06 00:53:56;;;;;;;4.17;3.27;;;;;;;-141.28;100.00;49327.38;5090935;28;20494;-73
2022/10/06 00:56:24;;;;;;;6.93;3.70;;;;;;;-141.28;100.00;49299.91;5091074;28;20879;-74
2022/10/06 00:58:51;;;;;;;5.30;4.00;;;;;;;-141.28;100.00;49276.38;5091065;28;20454;-73
2022/10/06 01:01:18;;;;;;;8.37;3.60;;;;;;;-141.28;100.00;49282.25;5090802;28;20477;-73
2022/10/06 01:03:50;;;;;;;6.63;3.40;;;;;;;-141.28;100.00;49256.75;5091109;28;20449;-74
2022/10/06 01:06:18;;;;;;;7.13;2.80;;;;;;;-141.28;100.00;49272.44;5090646;28;20533;-73
2022/10/06 01:08:47;;;;;;;3.90;2.97;;;;;;;-141.28;100.00;49258.69;5090892;28;20438;-73
2022/10/06 01:11:15;;;;;;;4.30;2.80;;;;;;;-141.28;100.00;49272.44;5090619;28;20445;-75
2022/10/06 01:13:44;;;;;;;5.33;2.50;;;;;;;-141.28;100.00;49290.09;5090639;28;20445;-76
2022/10/06 01:16:18;;;;;;;4.33;2.60;;;;;;;-141.28;100.00;49321.50;5090432;28;20445;-73
2022/10/06 01:18:47;;;;;;;3.83;2.53;;;;;;;-141.28;100.00;49333.25;5090242;28;20445;-73
2022/10/06 01:21:20;;;;;;;5.20;2.40;;;;;;;-141.28;100.00;49290.09;5090163;28;20576;-75
2022/10/06 01:23:49;;;;;;;2.30;2.10;;;;;;;-141.28;100.00;49305.78;5091192;28;20441;-74
2022/10/06 01:26:21;;;;;;;5.13;2.37;;;;;;;-141.28;100.00;49297.94;5091131;28;20449;-74
2022/10/06 01:28:49;;;;;;;4.33;2.50;;;;;;;-141.28;100.00;49282.25;5079721;28;20442;-73
2022/10/06 01:31:16;;;;;;;4.07;2.20;;;;;;;-141.28;100.00;49276.38;5093405;28;20456;-74
2022/10/06 01:33:43;;;;;;;6.40;2.63;;;;;;;-141.28;100.00;49286.16;5093928;28;20445;-73
2022/10/06 01:36:12;;;;;;;3.87;2.30;;;;;;;-141.28;100.00;49282.25;5093340;28;20448;-73
2022/10/06 01:38:40;;;;;;;2.40;2.20;;;;;;;-141.28;100.00;49286.16;5093691;28;20449;-73
2022/10/06 01:41:08;;;;;;;2.53;2.33;;;;;;;-141.28;100.00;49266.56;5094385;28;20473;-74
2022/10/06 01:43:36;;;;;;;4.70;2.27;;;;;;;-141.28;100.00;49270.47;5093083;28;20437;-74
2022/10/06 01:46:03;;;;;;;4.27;2.40;;;;;;;-141.28;100.00;49274.41;5091733;28;20495;-73
2022/10/06 01:48:30;;;;;;;3.73;2.30;;;;;;;-141.28;100.00;49262.63;5093375;28;20446;-73
2022/10/06 01:50:57;;;;;;;5.93;2.50;;;;;;;-141.28;100.00;49256.75;5091655;28;20443;-73
2022/10/06 01:53:24;;;;;;;2.67;2.37;;;;;;;-141.28;100.00;49258.69;5092178;28;20498;-71
2022/10/06 01:55:51;;;;;;;5.10;2.30;;;;;;;-141.28;100.00;49266.56;5096500;28;20519;-72
2022/10/06 01:58:20;;;;;;;3.60;2.30;;;;;;;-141.28;100.00;49250.84;5094876;28;20934;-74
2022/10/06 02:00:49;;;;;;;9.23;2.50;;;;;;;-141.28;100.00;49294.03;5082016;28;20490;-73
2022/10/06 02:03:16;;;;;;;6.33;2.70;;;;;;;-141.28;100.00;49303.84;5076941;28;20445;-74
2022/10/06 02:05:43;;;;;;;5.73;2.60;;;;;;;-141.28;100.00;49295.97;5094067;28;20888;-74
2022/10/06 02:08:10;;;;;;;3.37;2.40;;;;;;;-141.28;100.00;49290.09;5075760;28;20442;-75
2022/10/06 02:10:37;;;;;;;4.10;2.60;;;;;;;-141.28;100.00;49256.75;5093984;28;20441;-74
2022/10/06 02:13:04;;;;;;;11.07;2.93;;;;;;;-141.28;100.00;49262.63;5093790;28;20977;-73
2022/10/06 02:15:33;;;;;;;5.30;3.50;;;;;;;-141.28;100.00;49256.75;5093966;28;20445;-73
2022/10/06 02:18:00;;;;;;;5.13;3.30;;;;;;;-141.28;100.00;49243.00;5093739;28;20514;-74
2022/10/06 02:20:29;;;;;;;5.43;3.77;;;;;;;-141.28;100.00;49246.94;5093806;28;20450;-74
2022/10/06 02:22:56;;;;;;;5.67;3.80;;;;;;;-141.28;100.00;49231.22;5093979;28;20546;-74
2022/10/06 02:25:23;;;;;;;6.77;4.40;;;;;;;-141.28;100.00;49237.13;5093343;28;20449;-73
2022/10/06 02:27:50;;;;;;;9.90;4.07;;;;;;;-141.28;100.00;49231.22;5093352;28;20438;-74
2022/10/06 02:30:17;;;;;;;7.67;4.27;;;;;;;-141.28;100.00;49176.28;5093058;28;20453;-73
2022/10/06 02:32:46;;;;;;;8.60;4.50;;;;;;;-141.28;100.00;49160.59;5075452;28;20825;-74
2022/10/06 02:35:13;;;;;;;11.77;5.10;;;;;;;-141.28;100.00;49125.28;5093354;28;20440;-73
2022/10/06 02:37:41;;;;;;;11.03;5.13;;;;;;;-141.28;100.00;49089.97;5093328;28;20495;-74
2022/10/06 02:40:10;;;;;;;9.60;3.87;;;;;;;-141.28;100.00;49062.50;5093649;28;20483;-74
2022/10/06 02:42:39;;;;;;;7.40;4.60;;;;;;;-141.28;100.00;49029.13;5093189;28;21033;-74
2022/10/06 02:45:06;;;;;;;8.57;4.50;;;;;;;-141.28;100.00;49001.66;5093656;28;20851;-73
2022/10/06 02:47:34;;;;;;;9.07;4.70;;;;;;;-141.28;100.00;48964.38;5093425;28;20474;-76
2022/10/06 02:50:04;;;;;;;6.37;4.47;;;;;;;-141.28;100.00;48933.00;5092965;28;20506;-74
2022/10/06 02:52:34;;;;;;;6.43;4.57;;;;;;;-141.28;100.00;48887.88;5093447;28;20454;-72
2022/10/06 02:55:03;;;;;;;7.60;4.50;;;;;;;-141.28;100.00;48854.53;5096197;28;20437;-76
2022/10/06 02:57:31;;;;;;;8.90;4.57;;;;;;;-141.28;100.00;48846.69;5093202;28;20975;-73
2022/10/06 02:59:58;;;;;;;6.83;4.43;;;;;;;-141.28;100.00;48842.75;5092714;28;20449;-73
2022/10/06 03:02:25;;;;;;;6.67;4.70;;;;;;;-141.28;100.00;48832.94;5093253;28;20538;-73
2022/10/06 03:04:52;;;;;;;8.50;4.83;;;;;;;-141.28;100.00;48846.69;5091933;28;20925;-73
2022/10/06 03:07:20;;;;;;;9.10;5.00;;;;;;;-141.28;100.00;48803.50;5092779;28;20510;-72
2022/10/06 03:09:47;;;;;;;7.13;4.77;;;;;;;-141.28;100.00;48815.28;5092669;28;20442;-73
2022/10/06 03:12:14;;;;;;;9.40;5.20;;;;;;;-141.28;100.00;48830.97;5092640;28;20442;-75
2022/10/06 03:14:47;;;;;;;9.77;4.90;;;;;;;-141.28;100.00;48825.09;5092451;28;20445;-73
2022/10/06 03:17:14;;;;;;;11.07;5.10;;;;;;;-141.28;100.00;48840.78;5098220;28;20508;-74
2022/10/06 03:19:42;;;;;;;20.00;7.77;;;;;;;-141.28;100.00;48842.75;5097180;28;20434;-73
2022/10/06 03:22:10;;;;;;;26.00;13.47;;;;;;;-141.28;100.00;48870.22;5093331;28;20534;-74
2022/10/06 03:24:39;;;;;;;37.30;14.00;;;;;;;-141.28;100.00;48858.44;5079879;28;20519;-74
2022/10/06 03:27:06;;;;;;;15.77;10.30;;;;;;;-141.28;100.00;48866.28;5092369;28;20940;-75
2022/10/06 03:29:33;;;;;;;22.07;10.60;;;;;;;-141.28;100.00;48858.44;5092635;28;20553;-75
2022/10/06 03:32:00;;;;;;;11.37;7.57;;;;;;;-141.28;100.00;48878.06;5092218;28;20441;-75
2022/10/06 03:34:27;;;;;;;23.57;16.40;;;;;;;-141.28;100.00;48893.75;5092395;28;20438;-75
2022/10/06 03:36:54;;;;;;;22.70;12.27;;;;;;;-141.28;100.00;48885.91;5092575;28;20426;-74
2022/10/06 03:39:21;;;;;;;13.47;8.83;;;;;;;-141.28;100.00;48915.34;5092376;28;20522;-75
2022/10/06 03:41:50;;;;;;;15.90;10.33;;;;;;;-141.28;100.00;48905.53;5092167;28;20566;-75
2022/10/06 03:44:18;;;;;;;11.93;8.10;;;;;;;-141.28;100.00;48925.16;5091358;28;20469;-73
2022/10/06 03:46:48;;;;;;;8.97;6.50;;;;;;;-141.28;100.00;48923.19;5091640;28;20448;-73
2022/10/06 03:49:15;;;;;;;9.20;5.27;;;;;;;-141.28;100.00;48936.91;5091853;28;20497;-73
2022/10/06 03:51:42;;;;;;;7.40;5.00;;;;;;;-141.28;100.00;48917.31;5092269;28;21158;-74
2022/10/06 03:54:11;;;;;;;9.97;4.93;;;;;;;-141.28;100.00;48929.06;5091735;28;20452;-74
2022/10/06 03:56:39;;;;;;;6.37;4.77;;;;;;;-141.28;100.00;48944.78;5091796;28;20461;-74
2022/10/06 03:59:15;;;;;;;10.17;4.80;;;;;;;-141.28;100.00;48960.47;5091687;28;20438;-72
2022/10/06 04:01:44;;;;;;;15.67;4.97;;;;;;;-141.28;100.00;48993.81;5091975;28;20488;-73
2022/10/06 04:04:12;;;;;;;11.37;4.47;;;;;;;-141.28;100.00;49005.59;5091777;28;20523;-74
2022/10/06 04:06:42;;;;;;;7.53;4.63;;;;;;;-141.28;100.00;49019.31;5091589;28;20470;-75
2022/10/06 04:09:12;;;;;;;18.57;5.13;;;;;;;-141.28;100.00;49035.03;5091833;28;20553;-74
2022/10/06 04:11:40;;;;;;;16.13;5.77;;;;;;;-141.28;100.00;49058.56;5091679;28;20437;-74
2022/10/06 04:14:12;;;;;;;13.43;5.70;;;;;;;-141.28;100.00;49076.22;5091917;28;20491;-74
2022/10/06 04:16:41;;;;;;;16.03;5.87;;;;;;;-141.28;100.00;49086.03;5091399;28;20480;-73
2022/10/06 04:19:10;;;;;;;10.87;5.43;;;;;;;-141.28;100.00;49105.66;5091336;28;20506;-73
2022/10/06 04:21:38;;;;;;;14.13;5.90;;;;;;;-141.28;100.00;49105.66;5091391;28;20483;-73
2022/10/06 04:24:10;;;;;;;13.77;5.40;;;;;;;-141.28;100.00;49107.63;5090970;28;20438;-74
2022/10/06 04:26:40;;;;;;;18.80;5.53;;;;;;;-141.28;100.00;49101.72;5091436;28;20434;-75
2022/10/06 04:29:11;;;;;;;13.87;5.17;;;;;;;-141.28;100.00;49129.19;5091190;28;20442;-74
2022/10/06 04:31:39;;;;;;;18.77;5.53;;;;;;;-141.28;100.00;49144.91;5091594;28;20511;-74
2022/10/06 04:34:08;;;;;;;22.57;6.50;;;;;;;-141.28;100.00;49144.91;5077953;28;20924;-73
2022/10/06 04:36:39;;;;;;;26.90;10.70;;;;;;;-141.28;100.00;49156.66;5090948;28;20499;-73
2022/10/06 04:39:09;;;;;;;21.50;9.80;;;;;;;-141.28;100.00;49168.44;5091309;28;20774;-76
2022/10/06 04:41:37;;;;;;;26.83;7.93;;;;;;;-141.28;100.00;49184.13;5072415;28;20948;-73
2022/10/06 04:44:05;;;;;;;26.63;8.60;;;;;;;-141.28;100.00;49156.66;5090806;28;20464;-77
2022/10/06 04:46:35;;;;;;;22.17;8.53;;;;;;;-141.28;100.00;49203.75;5090911;28;20437;-76
2022/10/06 04:49:02;;;;;;;19.50;8.03;;;;;;;-141.28;100.00;49215.53;5090521;28;20441;-74
2022/10/06 04:51:29;;;;;;;24.00;7.13;;;;;;;-141.28;100.00;49223.38;5090912;28;20999;-73
2022/10/06 04:53:58;;;;;;;10.40;5.57;;;;;;;-141.28;100.00;49246.94;5090641;28;20950;-75
2022/10/06 04:56:28;;;;;;;15.53;6.33;;;;;;;-141.28;100.00;49256.75;5069427;28;20462;-75
2022/10/06 04:58:56;;;;;;;20.47;8.00;;;;;;;-141.28;100.00;49274.41;5086498;28;20936;-74
2022/10/06 05:01:25;;;;;;;27.00;8.67;;;;;;;-141.28;100.00;49270.47;5092618;28;20446;-73
2022/10/06 05:03:55;;;;;;;29.07;8.27;;;;;;;-141.28;100.00;49294.03;5094625;28;20848;-74
2022/10/06 05:06:23;;;;;;;17.63;7.03;;;;;;;-141.28;100.00;49290.09;5090963;28;20541;-73
2022/10/06 05:08:52;;;;;;;24.10;8.67;;;;;;;-141.28;100.00;49299.91;5090242;28;20525;-72
2022/10/06 05:11:21;;;;;;;20.93;7.70;;;;;;;-141.28;100.00;49305.78;5069418;28;20513;-74
2022/10/06 05:13:53;;;;;;;28.03;8.43;;;;;;;-141.28;100.00;49317.56;5090001;28;20441;-74
2022/10/06 05:16:22;;;;;;;19.63;7.87;;;;;;;-141.28;100.00;49331.31;5090124;28;20805;-74
2022/10/06 05:18:49;;;;;;;27.07;8.73;;;;;;;-141.28;100.00;49345.03;5090864;28;20441;-74
2022/10/06 05:21:19;;;;;;;29.17;7.63;;;;;;;-141.28;100.00;49347.00;5090235;28;20453;-73
2022/10/06 05:23:46;;;;;;;28.60;8.87;;;;;;;-141.28;100.00;49352.88;5090143;28;21003;-73
2022/10/06 05:26:16;;;;;;;33.37;8.30;;;;;;;-141.28;100.00;49364.66;5090349;28;20662;-73
2022/10/06 05:28:45;;;;;;;16.80;6.70;;;;;;;-141.28;100.00;49396.06;5089890;28;20481;-74
2022/10/06 05:31:14;;;;;;;28.93;7.60;;;;;;;-141.28;100.00;49431.38;5090287;28;20441;-75
2022/10/06 05:33:43;;;;;;;16.07;7.53;;;;;;;-141.28;100.00;49503.97;5091029;28;20438;-74
2022/10/06 05:36:13;;;;;;;26.23;7.83;;;;;;;-141.28;100.00;49588.34;5090536;28;20498;-75
2022/10/06 05:38:42;;;;;;;11.83;4.87;;;;;;;-141.28;100.00;49776.75;5090419;28;20449;-74
2022/10/06 05:41:13;;;;;;;13.33;4.83;;;;;;;-141.28;100.00;49935.72;5090246;28;20855;-74
2022/10/06 05:43:40;;;;;;;11.17;3.80;;;;;;;-141.28;100.00;50031.88;5090403;28;20838;-72
2022/10/06 05:46:11;;;;;;;6.57;3.10;;;;;;;-141.28;100.00;50169.28;5090295;28;20495;-73
2022/10/06 05:48:38;;;;;;;15.00;3.73;;;;;;;-141.28;100.00;50184.97;5069354;28;20877;-73
2022/10/06 05:51:07;;;;;;;4.13;2.97;;;;;;;-141.28;100.00;50243.84;5085769;28;20513;-73
2022/10/06 05:53:36;;;;;;;5.60;2.77;;;;;;;-141.28;100.00;50273.28;5089888;28;20499;-73
2022/10/06 05:56:06;;;;;;;6.23;3.27;;;;;;;-141.28;100.00;50316.47;5089957;28;20963;-74
2022/10/06 05:58:34;;;;;;;4.97;2.80;;;;;;;-141.28;100.00;50310.59;5090519;28;20468;-73
2022/10/06 06:01:12;;;;;;;8.67;3.50;;;;;;;-141.28;100.00;50275.25;5089608;28;20449;-75
2022/10/06 06:03:42;;;;;;;5.87;3.00;;;;;;;-141.28;100.00;50204.59;5089831;28;20546;-73
2022/10/06 06:06:16;;;;;;;6.40;3.00;;;;;;;-141.28;100.00;50216.38;5089540;28;20473;-75
2022/10/06 06:08:44;;;;;;;3.43;2.63;;;;;;;-141.28;100.00;50157.50;5090326;28;20440;-73
2022/10/06 06:11:15;;;;;;;11.70;3.63;;;;;;;-141.28;100.00;50194.78;5090185;28;20187;-75
2022/10/06 06:13:43;;;;;;;7.87;2.93;;;;;;;-141.28;100.00;50261.50;5090623;28;20327;-72
2022/10/06 06:16:15;;;;;;;5.73;2.93;;;;;;;-141.28;100.00;50324.31;5089680;28;20450;-74
2022/10/06 06:18:42;;;;;;;8.07;3.00;;;;;;;-141.28;100.00;50436.19;5089961;28;20195;-74
2022/10/06 06:21:11;;;;;;;12.13;3.30;;;;;;;-141.28;100.00;50612.88;5089909;28;20617;-73
2022/10/06 06:23:41;;;;;;;8.17;3.17;;;;;;;-141.28;100.00;50765.97;5090148;28;20273;-73
2022/10/06 06:26:10;;;;;;;5.93;3.30;;;;;;;-141.28;100.00;50958.38;5089537;28;20641;-75
2022/10/06 06:28:45;;;;;;;6.50;3.60;;;;;;;-141.28;100.00;51186.09;5089825;28;20658;-73
2022/10/06 06:31:14;;;;;;;20.23;5.80;;;;;;;-141.28;100.00;51406.00;5089708;28;20226;-74
2022/10/06 06:33:41;;;;;;;19.77;6.30;;;;;;;-141.28;100.00;51561.09;5089926;28;20196;-75
2022/10/06 06:36:16;;;;;;;15.13;5.93;;;;;;;-141.28;100.00;51763.34;5089948;28;20196;-75
2022/10/06 06:38:46;;;;;;;13.13;6.77;;;;;;;-141.28;100.00;51863.50;5089750;28;20314;-76
2022/10/06 06:41:14;;;;;;;20.63;6.20;;;;;;;-141.28;100.00;51820.28;5091275;28;20230;-74
2022/10/06 06:43:43;;;;;;;12.03;5.53;;;;;;;-141.28;100.00;51834.03;5093216;28;20296;-75
2022/10/06 06:46:10;;;;;;;23.33;6.50;;;;;;;-141.28;100.00;51771.19;5093038;28;20350;-74
2022/10/06 06:48:37;;;;;;;13.60;6.50;;;;;;;-141.28;100.00;51810.47;5093502;28;20195;-74
2022/10/06 06:51:04;;;;;;;15.53;6.10;;;;;;;-141.28;100.00;51853.69;5093566;28;20199;-72
2022/10/06 06:53:32;;;;;;;10.90;6.23;;;;;;;-141.28;100.00;51906.69;5093146;28;20203;-75
2022/10/06 06:55:59;;;;;;;11.97;5.53;;;;;;;-141.28;100.00;51944.00;5093230;28;20215;-74
2022/10/06 06:58:29;;;;;;;15.10;5.93;;;;;;;-141.28;100.00;51944.00;5093243;28;20355;-73
2022/10/06 07:01:05;;;;;;;12.70;5.90;;;;;;;-141.28;100.00;51916.50;5093631;28;20192;-74
2022/10/06 07:03:32;;;;;;;13.40;5.63;;;;;;;-141.28;100.00;51741.75;5092937;28;20226;-73
2022/10/06 07:06:08;;;;;;;11.50;4.97;;;;;;;-141.28;100.00;51700.50;5098922;28;20266;-73
2022/10/06 07:08:36;;;;;;;15.73;5.13;;;;;;;-141.28;100.00;51692.66;5098639;28;20206;-75
2022/10/06 07:11:16;;;;;;;12.60;4.77;;;;;;;-141.28;100.00;51602.34;5096402;28;20290;-73
2022/10/06 07:13:44;;;;;;;8.83;4.70;;;;;;;-141.28;100.00;51486.50;5092946;28;20191;-74
2022/10/06 07:27:12;;;;;;;6.90;4.17;;;;;;;-141.28;100.00;51095.78;5092787;28;20249;-74
2022/10/06 07:29:39;;;;;;;12.00;4.37;;;;;;;-141.28;100.00;50989.78;5092276;28;20654;-76
2022/10/06 07:32:07;;;;;;;7.97;4.97;;;;;;;-141.28;100.00;50783.66;5092589;28;20196;-74
2022/10/06 07:34:35;;;;;;;8.00;4.13;;;;;;;-141.28;100.00;50773.81;5092159;28;20282;-73
2022/10/06 07:37:02;;;;;;;12.67;4.47;;;;;;;-141.28;100.00;50730.66;5092729;28;20305;-75
2022/10/06 07:39:30;;;;;;;14.63;4.97;;;;;;;-141.28;100.00;50663.91;5092744;28;20253;-76
2022/10/06 07:42:02;;;;;;;6.90;3.47;;;;;;;-141.28;100.00;50820.94;5092392;28;20286;-75
2022/10/06 07:44:30;;;;;;;10.20;4.30;;;;;;;-141.28;100.00;50854.31;5092575;28;20296;-74
2022/10/06 07:46:58;;;;;;;10.77;4.50;;;;;;;-141.28;100.00;50781.69;5092277;28;20203;-73
2022/10/06 07:49:27;;;;;;;14.67;5.00;;;;;;;-141.28;100.00;50769.91;5092451;28;20253;-74
2022/10/06 07:51:54;;;;;;;9.47;4.70;;;;;;;-141.28;100.00;50722.78;5091460;28;20203;-75
2022/10/06 07:54:21;;;;;;;9.00;4.67;;;;;;;-141.28;100.00;50773.81;5091709;28;20580;-73
2022/10/06 07:56:48;;;;;;;11.37;4.90;;;;;;;-141.28;100.00;50699.22;5091682;28;20215;-73
2022/10/06 07:59:15;;;;;;;11.63;4.50;;;;;;;-141.28;100.00;50659.97;5091815;28;20209;-74
2022/10/06 08:01:43;;;;;;;12.77;4.40;;;;;;;-141.28;100.00;50605.00;5091880;28;20196;-76
2022/10/06 08:04:10;;;;;;;9.57;4.40;;;;;;;-141.28;100.00;50608.94;5091753;28;20235;-74
2022/10/06 08:06:38;;;;;;;13.90;4.20;;;;;;;-141.28;100.00;50620.72;5091862;28;20301;-76
2022/10/06 08:09:06;;;;;;;9.90;4.33;;;;;;;-141.28;100.00;50618.75;5091813;28;20630;-76
2022/10/06 08:11:34;;;;;;;7.83;4.30;;;;;;;-141.28;100.00;50699.22;5091708;28;20195;-73
2022/10/06 08:14:01;;;;;;;7.40;4.50;;;;;;;-141.28;100.00;50707.09;5091579;28;20207;-75
2022/10/06 08:16:28;;;;;;;4.43;3.83;;;;;;;-141.28;100.00;50722.78;5091351;28;20191;-74
2022/10/06 08:18:58;;;;;;;16.53;5.37;;;;;;;-141.28;100.00;50624.63;5091580;28;20203;-74
2022/10/06 08:21:27;;;;;;;11.43;4.17;;;;;;;-141.28;100.00;50589.31;5078604;28;20692;-75
2022/10/06 08:23:56;;;;;;;14.83;5.37;;;;;;;-141.28;100.00;50656.06;5091796;28;20230;-73
2022/10/06 08:26:25;;;;;;;12.33;4.47;;;;;;;-141.28;100.00;50593.22;5091489;28;20264;-74
2022/10/06 08:28:56;;;;;;;9.83;4.50;;;;;;;-141.28;100.00;50514.72;5091524;28;20570;-73
2022/10/06 08:31:25;;;;;;;11.23;4.40;;;;;;;-141.28;100.00;50318.44;5091670;28;20198;-74
2022/10/06 08:33:56;;;;;;;8.57;4.03;;;;;;;-141.28;100.00;50247.78;5072820;28;20200;-75
2022/10/06 08:36:26;;;;;;;14.00;4.30;;;;;;;-141.28;100.00;50051.50;5091551;28;20287;-74
2022/10/06 08:38:58;;;;;;;5.70;3.67;;;;;;;-141.28;100.00;49745.34;5091181;28;20282;-73
2022/10/06 08:41:28;;;;;;;6.73;3.83;;;;;;;-141.28;100.00;49721.81;5091348;28;20257;-73
2022/10/06 08:44:00;;;;;;;13.60;4.17;;;;;;;-141.28;100.00;49651.16;5090983;28;20360;-72
2022/10/06 08:46:35;;;;;;;5.07;3.37;;;;;;;-141.28;100.00;49647.22;5091151;28;20199;-74
2022/10/06 08:49:04;;;;;;;7.00;4.03;;;;;;;-141.28;100.00;49674.72;5090822;28;20206;-73
2022/10/06 08:51:49;;;;;;;9.63;4.73;;;;;;;-141.28;100.00;49745.34;5090932;28;20200;-73
2022/10/06 08:54:28;;;;;;;11.57;3.90;;;;;;;-141.28;100.00;49694.31;5079798;28;20650;-75
2022/10/06 08:57:02;;;;;;;6.13;3.77;;;;;;;-141.28;100.00;49625.66;5090229;28;20226;-73
2022/10/06 08:59:33;;;;;;;7.37;4.10;;;;;;;-141.28;100.00;49627.59;5072906;28;20190;-73
2022/10/06 09:02:06;;;;;;;9.00;4.07;;;;;;;-141.28;100.00;49537.34;5090759;28;20192;-74
2022/10/06 09:04:34;;;;;;;6.40;3.43;;;;;;;-141.28;100.00;49423.53;5089715;28;20315;-73
2022/10/06 09:07:04;;;;;;;6.57;3.77;;;;;;;-141.28;100.00;49390.16;5077822;28;20667;-74
2022/10/06 09:09:50;;;;;;;12.97;3.73;;;;;;;-141.28;100.00;49348.97;5090530;28;20199;-74
2022/10/06 09:12:27;;;;;;;7.53;3.70;;;;;;;-141.28;100.00;49386.25;5090885;28;20199;-73
2022/10/06 09:15:01;;;;;;;6.33;3.17;;;;;;;-141.28;100.00;49392.13;5090826;28;20676;-74
2022/10/06 09:17:34;;;;;;;6.20;3.30;;;;;;;-141.28;100.00;49301.88;5090829;28;20631;-73
2022/10/06 09:20:05;;;;;;;5.87;2.93;;;;;;;-141.28;100.00;49341.13;5078973;28;20199;-74
2022/10/06 09:22:33;;;;;;;8.43;2.90;;;;;;;-141.28;100.00;49266.56;5091202;28;20247;-75
2022/10/06 09:25:16;;;;;;;5.13;3.30;;;;;;;-141.28;100.00;49223.38;5090566;28;20320;-74
2022/10/06 09:27:49;;;;;;;7.07;2.80;;;;;;;-141.28;100.00;49209.66;5090679;28;20191;-75
2022/10/06 09:30:27;;;;;;;5.07;2.80;;;;;;;-141.28;100.00;49246.94;5090438;28;20658;-74
2022/10/06 09:32:58;;;;;;;5.63;2.67;;;;;;;-141.28;100.00;49227.31;5077641;28;20210;-75
2022/10/06 09:35:28;;;;;;;7.50;2.80;;;;;;;-141.28;100.00;49227.31;5090600;28;20199;-74
2022/10/06 09:38:02;;;;;;;4.43;2.90;;;;;;;-141.28;100.00;49272.44;5090881;28;20201;-75
2022/10/06 09:40:49;;;;;;;8.07;3.17;;;;;;;-141.28;100.00;49223.38;5090323;28;20278;-74
2022/10/06 09:43:24;;;;;;;8.57;2.87;;;;;;;-141.28;100.00;49203.75;5089712;28;20215;-73
2022/10/06 09:45:53;;;;;;;9.30;2.80;;;;;;;-141.28;100.00;49227.31;5090109;28;20513;-74
2022/10/06 09:48:22;;;;;;;14.30;3.77;;;;;;;-141.28;100.00;49239.09;5089928;28;20203;-75
2022/10/06 09:51:12;;;;;;;7.13;3.50;;;;;;;-141.28;100.00;49195.91;5090086;28;20637;-74
2022/10/06 09:53:39;;;;;;;4.63;3.23;;;;;;;-141.28;100.00;49156.66;5090096;28;20253;-76
2022/10/06 09:56:17;;;;;;;9.47;3.30;;;;;;;-141.28;100.00;49174.34;5090138;28;20264;-72
2022/10/06 09:58:56;;;;;;;5.47;3.27;;;;;;;-141.28;100.00;49156.66;5090246;28;20191;-75
2022/10/06 10:01:28;;;;;;;4.30;3.10;;;;;;;-141.28;100.00;49180.22;5089721;28;20223;-74
2022/10/06 10:03:59;;;;;;;5.37;3.17;;;;;;;-141.28;100.00;49164.53;5090165;28;20231;-74
2022/10/06 10:06:28;;;;;;;6.30;3.00;;;;;;;-141.28;100.00;49704.13;5090155;28;20650;-73
2022/10/06 10:09:33;;;;;;;7.47;3.03;;;;;;;-141.28;100.00;49156.66;5090126;28;20245;-74
2022/10/06 10:12:30;;;;;;;5.67;3.17;;;;;;;-141.28;100.00;49135.09;5078510;28;20195;-75
2022/10/06 10:15:02;;;;;;;6.20;3.10;;;;;;;-141.28;100.00;49115.47;5091355;28;20192;-76
2022/10/06 10:17:45;;;;;;;7.37;3.53;;;;;;;-141.28;100.00;49168.44;5094051;28;20288;-75
2022/10/06 10:20:33;;;;;;;9.20;3.33;;;;;;;-141.28;100.00;49135.09;5093797;28;20296;-74
2022/10/06 10:23:03;;;;;;;5.33;3.27;;;;;;;-141.28;100.00;49125.28;5094244;28;20195;-74
2022/10/06 10:25:46;;;;;;;4.50;3.43;;;;;;;-141.28;100.00;49129.19;5093952;28;20196;-76
2022/10/06 10:28:43;;;;;;;5.00;3.23;;;;;;;-141.28;100.00;49109.59;5093737;28;20253;-75
2022/10/06 10:31:19;;;;;;;7.47;3.57;;;;;;;-141.28;100.00;49148.81;5094300;28;20195;-75
2022/10/06 10:33:57;;;;;;;11.23;3.90;;;;;;;-141.28;100.00;49148.81;5081922;28;20230;-75
2022/10/06 10:36:34;;;;;;;5.30;3.37;;;;;;;-141.28;100.00;49093.88;5093526;28;20226;-74
2022/10/06 10:39:01;;;;;;;4.97;2.83;;;;;;;-141.28;96.78;49113.50;5093247;28;20210;-75
2022/10/06 10:41:41;;;;;;;3.83;2.73;;;;;;;-141.28;87.55;49127.25;5093659;28;20191;-75
2022/10/06 10:44:18;;;;;;;9.23;4.10;;;;;;;-141.28;97.20;49115.47;5093383;28;20626;-75
2022/10/06 10:46:50;;;;;;;7.90;3.57;;;;;;;-141.28;92.38;49111.53;5093793;28;20206;-73
2022/10/06 10:49:19;;;;;;;9.07;3.77;;;;;;;-141.28;90.30;49097.81;5093543;28;20249;-73
2022/10/06 10:51:51;;;;;;;8.70;3.50;;;;;;;-141.28;80.63;49093.88;5093224;28;20542;-74
2022/10/06 10:54:24;;;;;;;6.73;3.20;;;;;;;-141.28;75.52;49099.78;5094033;28;20221;-74
2022/10/06 10:56:52;;;;;;;5.87;3.20;;;;;;;-141.28;76.10;49107.63;5095714;28;20215;-73
2022/10/06 10:59:27;;;;;;;8.67;3.40;;;;;;;-141.28;78.02;49115.47;5072466;28;20200;-75
2022/10/06 11:01:59;;;;;;;5.13;3.33;;;;;;;-141.28;81.38;49125.28;5091614;28;20187;-74
2022/10/06 11:04:27;;;;;;;7.03;3.80;;;;;;;-141.28;84.11;49156.66;5093159;28;20235;-74
2022/10/06 11:07:06;;;;;;;12.70;3.93;;;;;;;-141.28;88.36;49109.59;5093091;28;20247;-74
2022/10/06 11:09:45;;;;;;;7.63;3.57;;;;;;;-141.28;79.81;49078.19;5092570;28;20201;-74
2022/10/06 11:12:22;;;;;;;7.83;3.00;;;;;;;-141.28;67.91;49038.94;5092744;28;20249;-75
2022/10/06 11:14:56;;;;;;;9.23;3.00;;;;;;;-141.28;67.85;49074.25;5092618;28;20284;-74
2022/10/06 11:17:43;;;;;;;5.77;2.73;;;;;;;-141.28;63.79;49056.59;5092454;28;20242;-76
2022/10/06 11:20:39;;;;;;;5.03;2.97;;;;;;;-141.28;65.81;49056.59;5080503;28;20196;-75
2022/10/06 11:23:31;;;;;;;6.73;2.97;;;;;;;-141.28;71.23;48993.81;5092405;28;20739;-72
2022/10/06 11:26:08;;;;;;;7.87;2.83;;;;;;;-141.28;63.77;48968.31;5092110;28;20275;-74
2022/10/06 11:28:49;;;;;;;3.40;2.70;;;;;;;-141.28;57.06;48968.31;5092683;28;20201;-74
2022/10/06 11:31:29;;;;;;;4.37;3.43;;;;;;;-141.28;55.24;48936.91;5092140;28;20229;-74
2022/10/06 11:34:02;;;;;;;2.80;1.93;;;;;;;-141.28;48.21;48984.00;5092634;28;20264;-75